createdAt,value
2022-08-17T00:01:51.869Z,4.53
2022-08-17T00:04:21.035Z,5.95
2022-08-17T00:06:49.550Z,5.10
2022-08-17T00:09:18.882Z,3.58
2022-08-17T00:12:41.309Z,7.15
2022-08-17T00:14:35.914Z,6.50
2022-08-17T00:17:04.500Z,4.97
2022-08-17T00:19:32.534Z,4.15
2022-08-17T00:22:32.592Z,5.63
2022-08-17T00:24:47.292Z,4.75
2022-08-17T00:27:13.968Z,5.13
2022-08-17T00:29:41.053Z,5.20
2022-08-17T00:33:13.884Z,5.18
2022-08-17T00:34:54.426Z,6.25
2022-08-17T00:37:27.606Z,6.95
2022-08-17T00:39:54.277Z,4.47
2022-08-17T00:42:20.931Z,4.88
2022-08-17T00:44:47.667Z,7.55
2022-08-17T00:47:14.291Z,4.05
2022-08-17T00:49:41.169Z,5.50
2022-08-17T00:52:16.597Z,5.85
2022-08-17T00:54:46.884Z,4.65
2022-08-17T00:57:21.087Z,8.18
2022-08-17T01:00:03.062Z,4.68
2022-08-17T01:02:43.077Z,4.95
2022-08-17T01:05:18.585Z,5.85
2022-08-17T01:07:47.860Z,4.60
2022-08-17T01:10:59.083Z,5.50
2022-08-17T01:13:05.351Z,5.63
2022-08-17T01:15:38.689Z,6.18
2022-08-17T01:18:07.881Z,6.30
2022-08-17T01:20:46.655Z,5.45
2022-08-17T01:23:21.255Z,7.97
2022-08-17T01:25:51.295Z,8.27
2022-08-17T01:28:52.477Z,6.75
2022-08-17T01:31:08.279Z,9.70
2022-08-17T01:33:36.123Z,5.43
2022-08-17T01:36:04.090Z,11.68
2022-08-17T01:38:31.783Z,5.32
2022-08-17T01:41:03.092Z,5.22
2022-08-17T01:43:35.027Z,6.90
2022-08-17T01:46:04.114Z,8.57
2022-08-17T01:48:33.665Z,7.45
2022-08-17T01:51:01.175Z,13.40
2022-08-17T01:53:34.208Z,7.65
2022-08-17T01:56:13.283Z,5.68
2022-08-17T01:58:42.215Z,13.88
2022-08-17T02:01:10.586Z,8.35
2022-08-17T02:03:38.268Z,6.78
2022-08-17T02:06:06.293Z,9.32
2022-08-17T02:09:01.482Z,8.38
2022-08-17T02:11:32.280Z,9.20
2022-08-17T02:14:02.437Z,7.97
2022-08-17T02:16:36.617Z,11.40
2022-08-17T02:19:11.100Z,10.60
2022-08-17T02:21:39.175Z,6.28
2022-08-17T02:24:10.848Z,7.72
2022-08-17T02:26:37.750Z,6.50
2022-08-17T02:29:04.578Z,6.97
2022-08-17T02:31:31.306Z,8.02
2022-08-17T02:34:03.892Z,7.60
2022-08-17T02:36:34.089Z,9.85
2022-08-17T02:39:11.947Z,7.93
2022-08-17T02:41:40.840Z,9.20
2022-08-17T02:44:08.116Z,9.38
2022-08-17T02:46:34.934Z,7.72
2022-08-17T02:49:01.740Z,5.50
2022-08-17T02:51:28.502Z,7.95
2022-08-17T02:54:40.152Z,11.18
2022-08-17T02:56:42.836Z,10.38
2022-08-17T02:59:09.468Z,10.77
2022-08-17T03:01:36.262Z,7.50
2022-08-17T03:04:03.086Z,7.07
2022-08-17T03:06:31.683Z,6.75
2022-08-17T03:08:58.417Z,9.90
2022-08-17T03:11:25.042Z,8.60
2022-08-17T03:13:51.681Z,7.28
2022-08-17T03:16:18.368Z,6.70
2022-08-17T03:18:45.007Z,9.07
2022-08-17T03:21:11.943Z,12.27
2022-08-17T03:23:42.149Z,7.30
2022-08-17T03:26:12.277Z,8.32
2022-08-17T03:28:42.353Z,8.73
2022-08-17T03:31:08.954Z,8.25
2022-08-17T03:33:35.640Z,8.50
2022-08-17T03:36:02.213Z,7.18
2022-08-17T03:38:28.934Z,7.85
2022-08-17T03:41:06.458Z,8.32
2022-08-17T03:43:34.462Z,8.27
2022-08-17T03:46:28.810Z,9.18
2022-08-17T03:49:23.926Z,9.18
2022-08-17T03:52:09.777Z,11.50
2022-08-17T03:54:55.692Z,6.35
2022-08-17T03:57:23.112Z,9.55
2022-08-17T03:59:50.341Z,8.75
2022-08-17T04:02:24.030Z,8.45
2022-08-17T04:04:51.323Z,9.90
2022-08-17T04:07:21.071Z,7.53
2022-08-17T04:09:48.101Z,12.38
2022-08-17T04:12:17.771Z,9.07
2022-08-17T04:14:53.401Z,9.07
2022-08-17T04:17:27.658Z,12.60
2022-08-17T04:19:54.930Z,10.38
2022-08-17T04:22:30.558Z,8.93
2022-08-17T04:25:14.244Z,11.98
2022-08-17T04:27:41.227Z,7.80
2022-08-17T04:30:08.648Z,8.45
2022-08-17T04:33:08.762Z,12.65
2022-08-17T04:35:45.537Z,7.20
2022-08-17T04:38:17.906Z,10.02
2022-08-17T04:41:03.628Z,13.65
2022-08-17T04:46:00.877Z,15.18
2022-08-17T04:48:36.946Z,9.48
2022-08-17T04:51:07.098Z,6.97
2022-08-17T04:53:34.205Z,9.93
2022-08-17T04:56:00.862Z,8.98
2022-08-17T04:58:27.951Z,7.55
2022-08-17T05:00:54.592Z,9.80
2022-08-17T05:03:21.301Z,8.02
2022-08-17T05:05:50.000Z,11.18
2022-08-17T05:08:19.230Z,10.32
2022-08-17T05:10:47.146Z,7.32
2022-08-17T05:13:17.401Z,12.27
2022-08-17T05:15:47.901Z,9.40
2022-08-17T05:18:15.718Z,8.32
2022-08-17T05:20:42.856Z,6.85
2022-08-17T05:23:13.812Z,8.70
2022-08-17T05:25:47.343Z,6.82
2022-08-17T05:28:16.798Z,12.27
2022-08-17T05:30:46.313Z,10.93
2022-08-17T05:33:22.439Z,7.55
2022-08-17T05:35:51.798Z,8.85
2022-08-17T05:38:21.543Z,10.90
2022-08-17T05:40:48.533Z,12.70
2022-08-17T05:43:21.757Z,13.90
2022-08-17T05:46:02.843Z,10.55
2022-08-17T05:48:40.091Z,11.20
2022-08-17T05:51:27.960Z,8.90
2022-08-17T05:54:15.603Z,8.93
2022-08-17T05:56:42.364Z,12.02
2022-08-17T05:59:33.619Z,9.05
2022-08-17T06:02:00.230Z,11.48
2022-08-17T06:04:33.965Z,9.60
2022-08-17T06:07:06.630Z,7.43
2022-08-17T06:09:45.970Z,9.68
2022-08-17T06:12:23.555Z,12.80
2022-08-17T06:15:10.695Z,6.78
2022-08-17T06:17:37.921Z,7.80
2022-08-17T06:20:14.238Z,9.48
2022-08-17T06:22:47.700Z,5.20
2022-08-17T06:25:17.893Z,5.57
2022-08-17T06:27:53.577Z,8.32
2022-08-17T06:30:25.674Z,6.18
2022-08-17T06:32:55.516Z,8.23
2022-08-17T06:35:34.044Z,4.28
2022-08-17T06:38:04.586Z,4.53
2022-08-17T06:40:59.022Z,9.00
2022-08-17T06:43:43.986Z,7.68
2022-08-17T06:46:21.513Z,5.72
2022-08-17T06:51:39.454Z,8.77
2022-08-17T06:54:10.267Z,4.13
2022-08-17T06:56:53.233Z,7.15
2022-08-17T06:59:36.252Z,5.57
2022-08-17T07:02:50.927Z,6.22
2022-08-17T07:05:24.225Z,4.35
2022-08-17T07:08:03.606Z,3.60
2022-08-17T07:10:46.063Z,4.00
2022-08-17T07:14:03.425Z,6.25
2022-08-17T07:16:42.274Z,3.05
2022-08-17T07:19:10.940Z,10.05
2022-08-17T07:21:50.269Z,6.15
2022-08-17T07:24:47.302Z,7.20
2022-08-17T07:27:31.109Z,4.00
2022-08-17T07:30:08.067Z,9.43
2022-08-17T07:32:58.391Z,7.60
2022-08-17T07:35:41.312Z,10.48
2022-08-17T07:38:29.653Z,4.40
2022-08-17T07:41:02.766Z,12.88
2022-08-17T07:43:35.228Z,9.13
2022-08-17T07:46:29.952Z,4.75
2022-08-17T07:49:18.434Z,9.55
2022-08-17T07:51:45.654Z,9.23
2022-08-17T07:54:15.441Z,8.45
2022-08-17T07:56:49.822Z,7.20
2022-08-17T07:59:23.396Z,16.88
2022-08-17T08:01:56.397Z,13.98
2022-08-17T08:04:58.840Z,19.85
2022-08-17T08:07:30.303Z,7.25
2022-08-17T08:10:02.882Z,7.05
2022-08-17T08:12:40.152Z,5.03
2022-08-17T08:15:35.356Z,9.43
2022-08-17T08:18:05.097Z,6.50
2022-08-17T08:20:53.100Z,5.93
2022-08-17T08:23:42.843Z,9.32
2022-08-17T08:26:27.562Z,5.85
2022-08-17T08:28:54.751Z,4.78
2022-08-17T08:31:42.322Z,7.97
2022-08-17T08:34:45.441Z,17.05
2022-08-17T08:37:36.686Z,7.10
2022-08-17T08:40:15.402Z,4.68
2022-08-17T08:42:52.761Z,6.53
2022-08-17T08:45:35.061Z,7.55
2022-08-17T08:48:23.161Z,7.30
2022-08-17T08:51:32.854Z,6.05
2022-08-17T08:54:26.597Z,10.13
2022-08-17T09:00:15.506Z,13.73
2022-08-17T09:03:10.057Z,10.70
2022-08-17T09:05:45.574Z,3.58
2022-08-17T09:08:18.089Z,4.85
2022-08-17T09:10:44.614Z,3.72
2022-08-17T09:13:45.508Z,3.28
2022-08-17T09:16:33.174Z,3.95
2022-08-17T09:19:10.753Z,6.35
2022-08-17T09:21:48.609Z,8.25
2022-08-17T09:24:35.591Z,8.65
2022-08-17T09:27:13.834Z,7.40
2022-08-17T09:29:49.069Z,7.50
2022-08-17T09:32:38.223Z,10.23
2022-08-17T09:35:25.044Z,4.00
2022-08-17T09:38:13.617Z,7.50
2022-08-17T09:40:40.160Z,3.10
2022-08-17T09:43:41.104Z,10.43
2022-08-17T09:46:21.961Z,5.82
2022-08-17T09:49:03.246Z,5.60
2022-08-17T09:51:39.988Z,5.85
2022-08-17T09:54:38.029Z,6.00
2022-08-17T09:57:34.972Z,10.88
2022-08-17T10:00:09.974Z,3.58
2022-08-17T10:03:24.096Z,7.28
2022-08-17T10:06:07.721Z,4.28
2022-08-17T10:08:52.422Z,5.15
2022-08-17T10:12:11.954Z,7.90
2022-08-17T10:15:07.986Z,5.05
2022-08-17T10:18:08.502Z,8.88
2022-08-17T10:21:33.319Z,7.25
2022-08-17T10:24:28.174Z,4.88
2022-08-17T10:26:59.027Z,6.95
2022-08-17T10:29:46.223Z,9.00
2022-08-17T10:32:33.628Z,5.75
2022-08-17T10:35:00.233Z,4.88
2022-08-17T10:38:04.119Z,9.85
2022-08-17T10:40:43.749Z,10.40
2022-08-17T10:43:38.452Z,6.20
2022-08-17T10:46:42.500Z,9.93
2022-08-17T10:49:18.185Z,11.77
2022-08-17T10:51:48.005Z,5.68
2022-08-17T10:54:48.806Z,7.10
2022-08-17T10:57:33.745Z,5.13
2022-08-17T11:00:02.356Z,7.00
2022-08-17T11:02:51.796Z,7.28
2022-08-17T11:05:59.860Z,7.90
2022-08-17T11:08:56.877Z,7.90
2022-08-17T11:11:50.827Z,6.97
2022-08-17T11:14:39.876Z,14.68
2022-08-17T11:17:14.490Z,14.80
2022-08-17T11:19:56.500Z,14.52
2022-08-17T11:22:31.313Z,12.88
2022-08-17T11:25:31.404Z,10.88
2022-08-17T11:28:09.251Z,14.15
2022-08-17T11:30:49.690Z,15.30
2022-08-17T11:33:36.895Z,8.60
2022-08-17T11:36:31.475Z,10.00
2022-08-17T11:39:22.458Z,11.65
2022-08-17T11:42:18.171Z,9.30
2022-08-17T11:45:31.922Z,11.75
2022-08-17T11:48:30.693Z,14.70
2022-08-17T11:51:18.507Z,10.95
2022-08-17T11:53:45.722Z,17.00
2022-08-17T11:56:38.212Z,10.90
2022-08-17T11:59:33.785Z,11.73
2022-08-17T12:02:02.943Z,11.43
2022-08-17T12:04:34.885Z,13.73
2022-08-17T12:07:18.081Z,21.63
2022-08-17T12:09:50.236Z,13.15
2022-08-17T12:12:22.749Z,13.93
2022-08-17T12:15:11.417Z,15.93
2022-08-17T12:17:40.658Z,21.45
2022-08-17T12:20:23.027Z,12.40
2022-08-17T12:23:05.393Z,23.25
2022-08-17T12:25:46.265Z,18.83
2022-08-17T12:28:25.333Z,14.13
2022-08-17T12:30:52.933Z,15.07
2022-08-17T12:33:25.483Z,28.80
2022-08-17T12:38:33.011Z,19.63
2022-08-17T12:41:21.077Z,17.80
2022-08-17T12:43:58.564Z,17.23
2022-08-17T12:46:25.705Z,15.63
2022-08-17T12:48:58.772Z,15.65
2022-08-17T12:51:26.252Z,18.55
2022-08-17T12:53:54.957Z,17.33
2022-08-17T12:56:21.818Z,21.08
2022-08-17T12:58:53.964Z,22.67
2022-08-17T13:01:23.259Z,21.80
2022-08-17T13:03:53.557Z,21.25
2022-08-17T13:06:48.431Z,22.40
2022-08-17T13:09:35.971Z,17.83
2022-08-17T13:12:08.415Z,18.92
2022-08-17T13:14:35.246Z,20.38
2022-08-17T13:17:07.368Z,25.08
2022-08-17T13:19:48.284Z,27.40
2022-08-17T13:22:15.020Z,26.23
2022-08-17T13:24:56.970Z,24.65
2022-08-17T13:27:27.514Z,22.77
2022-08-17T13:30:01.377Z,33.75
2022-08-17T13:32:31.056Z,38.50
2022-08-17T13:35:14.198Z,22.42
2022-08-17T13:37:58.721Z,27.50
2022-08-17T13:40:29.672Z,25.75
2022-08-17T13:42:57.906Z,24.30
2022-08-17T13:45:34.930Z,24.70
2022-08-17T13:48:10.855Z,23.58
2022-08-17T13:50:43.585Z,28.35
2022-08-17T13:53:15.872Z,32.47
2022-08-17T13:55:53.457Z,27.30
2022-08-17T13:58:27.120Z,31.95
2022-08-17T14:00:53.882Z,29.67
2022-08-17T14:03:20.751Z,29.50
2022-08-17T14:05:50.036Z,32.00
2022-08-17T14:08:19.745Z,29.17
2022-08-17T14:10:57.697Z,36.05
2022-08-17T14:13:24.533Z,27.27
2022-08-17T14:15:56.153Z,29.83
2022-08-17T14:18:55.307Z,28.52
2022-08-17T14:21:11.045Z,27.83
2022-08-17T14:23:37.751Z,31.27
2022-08-17T14:26:05.186Z,34.92
2022-08-17T14:28:32.214Z,29.70
2022-08-17T14:31:00.748Z,29.73
2022-08-17T14:33:28.392Z,33.17
2022-08-17T14:35:55.814Z,40.58
2022-08-17T14:38:22.676Z,29.75
2022-08-17T14:40:49.634Z,27.40
2022-08-17T14:43:17.760Z,27.75
2022-08-17T14:45:44.531Z,31.15
2022-08-17T14:48:11.248Z,27.88
2022-08-17T14:50:42.647Z,29.60
2022-08-17T14:53:12.041Z,30.17
2022-08-17T14:55:42.102Z,29.42
2022-08-17T14:58:09.249Z,29.02
2022-08-17T15:00:36.776Z,33.70
2022-08-17T15:03:04.023Z,34.42
2022-08-17T15:05:34.020Z,26.60
2022-08-17T15:08:02.616Z,37.03
2022-08-17T15:10:30.698Z,34.13
2022-08-17T15:12:57.782Z,42.03
2022-08-17T15:15:24.400Z,29.05
2022-08-17T15:17:51.516Z,39.67
2022-08-17T15:20:24.851Z,32.53
2022-08-17T15:22:55.540Z,33.10
2022-08-17T15:25:23.987Z,27.85
2022-08-17T15:27:50.784Z,30.13
2022-08-17T15:30:17.690Z,32.58
2022-08-17T15:32:50.676Z,31.58
2022-08-17T15:35:27.995Z,26.80
2022-08-17T15:38:11.074Z,23.30
2022-08-17T15:40:48.296Z,27.40
2022-08-17T15:43:24.827Z,31.85
2022-08-17T15:46:12.449Z,28.08
2022-08-17T15:48:42.039Z,32.38
2022-08-17T15:51:21.130Z,36.92
2022-08-17T15:53:54.251Z,24.05
2022-08-17T15:56:21.278Z,30.10
2022-08-17T15:58:48.547Z,24.75
2022-08-17T16:01:51.806Z,28.95
2022-08-17T16:04:26.704Z,23.83
2022-08-17T16:06:52.632Z,24.67
2022-08-17T16:09:19.248Z,26.45
2022-08-17T16:11:45.974Z,30.15
2022-08-17T16:14:20.273Z,26.27
2022-08-17T16:16:47.472Z,26.00
2022-08-17T16:19:14.277Z,27.02
2022-08-17T16:21:42.780Z,22.77
2022-08-17T16:24:13.388Z,21.33
2022-08-17T16:26:40.542Z,27.33
2022-08-17T16:29:07.740Z,22.48
2022-08-17T16:31:36.013Z,27.50
2022-08-17T16:34:16.699Z,26.88
2022-08-17T16:36:55.266Z,22.65
2022-08-17T16:39:29.608Z,27.27
2022-08-17T16:41:57.385Z,26.02
2022-08-17T16:44:27.372Z,27.40
2022-08-17T16:46:54.312Z,27.92
2022-08-17T16:49:35.195Z,24.10
2022-08-17T16:52:04.216Z,24.15
2022-08-17T16:54:31.016Z,26.45
2022-08-17T16:56:57.690Z,23.05
2022-08-17T16:59:31.029Z,28.75
2022-08-17T17:02:04.716Z,24.58
2022-08-17T17:04:35.046Z,24.63
2022-08-17T17:07:33.605Z,27.42
2022-08-17T17:10:16.919Z,30.88
2022-08-17T17:13:01.547Z,32.08
2022-08-17T17:15:44.761Z,25.20
2022-08-17T17:18:14.736Z,25.45
2022-08-17T17:20:52.824Z,27.67
2022-08-17T17:23:47.771Z,30.83
2022-08-17T17:26:38.411Z,27.80
2022-08-17T17:29:24.299Z,27.83
2022-08-17T17:32:13.568Z,26.73
2022-08-17T17:34:50.878Z,24.45
2022-08-17T17:37:27.188Z,33.67
2022-08-17T17:39:59.904Z,31.48
2022-08-17T17:42:31.401Z,30.63
2022-08-17T17:45:16.778Z,30.77
2022-08-17T17:47:44.496Z,26.60
2022-08-17T17:50:11.387Z,28.52
2022-08-17T17:52:47.487Z,27.80
2022-08-17T17:55:22.993Z,31.77
2022-08-17T17:58:04.773Z,26.42
2022-08-17T18:00:46.395Z,25.67
2022-08-17T18:03:22.290Z,25.58
2022-08-17T18:06:13.471Z,24.90
2022-08-17T18:09:19.707Z,21.58
2022-08-17T18:12:09.123Z,22.45
2022-08-17T18:14:58.284Z,24.23
2022-08-17T18:17:24.970Z,25.17
2022-08-17T18:19:55.255Z,23.23
2022-08-17T18:22:23.953Z,24.23
2022-08-17T18:24:55.826Z,21.60
2022-08-17T18:27:38.220Z,20.33
2022-08-17T18:30:14.323Z,25.42
2022-08-17T18:32:43.611Z,27.20
2022-08-17T18:35:16.055Z,25.38
2022-08-17T18:37:48.908Z,21.80
2022-08-17T18:40:23.312Z,21.02
2022-08-17T18:43:27.790Z,22.20
2022-08-17T18:46:39.016Z,19.50
2022-08-17T18:49:25.302Z,21.35
2022-08-17T18:52:21.551Z,18.88
2022-08-17T18:55:04.074Z,23.92
2022-08-17T18:57:59.608Z,24.58
2022-08-17T19:00:26.435Z,19.48
2022-08-17T19:02:56.861Z,20.05
2022-08-17T19:05:36.494Z,23.27
2022-08-17T19:08:33.197Z,21.80
2022-08-17T19:11:19.150Z,21.08
2022-08-17T19:13:52.878Z,24.58
2022-08-17T19:16:30.462Z,25.00
2022-08-17T19:19:26.469Z,26.05
2022-08-17T19:22:02.790Z,25.92
2022-08-17T19:24:33.553Z,24.45
2022-08-17T19:27:19.627Z,26.48
2022-08-17T19:29:57.509Z,24.75
2022-08-17T19:32:31.566Z,27.83
2022-08-17T19:34:58.257Z,23.25
2022-08-17T19:37:52.707Z,20.23
2022-08-17T19:40:52.670Z,21.85
2022-08-17T19:43:25.253Z,21.25
2022-08-17T19:46:19.044Z,25.08
2022-08-17T19:48:56.341Z,20.27
2022-08-17T19:51:53.886Z,24.13
2022-08-17T19:54:30.967Z,27.85
2022-08-17T19:57:12.181Z,25.85
2022-08-17T19:59:56.799Z,24.00
2022-08-17T20:02:47.623Z,19.90
2022-08-17T20:05:30.761Z,20.23
2022-08-17T20:08:07.369Z,22.75
2022-08-17T20:10:47.366Z,24.77
2022-08-17T20:13:49.609Z,25.00
2022-08-17T20:16:18.115Z,24.50
2022-08-17T20:19:00.824Z,25.38
2022-08-17T20:21:41.252Z,25.42
2022-08-17T20:24:23.661Z,23.98
2022-08-17T20:26:59.920Z,30.60
2022-08-17T20:29:53.862Z,30.40
2022-08-17T20:32:48.648Z,33.28
2022-08-17T20:35:16.727Z,31.40
2022-08-17T20:37:53.618Z,30.23
2022-08-17T20:40:25.841Z,31.50
2022-08-17T20:42:52.824Z,31.50
2022-08-17T20:45:23.306Z,29.00
2022-08-17T20:48:33.285Z,28.52
2022-08-17T20:50:56.212Z,34.47
2022-08-17T20:53:47.967Z,31.73
2022-08-17T20:56:43.647Z,30.30
2022-08-17T20:59:25.669Z,27.67
2022-08-17T21:02:19.328Z,32.03
2022-08-17T21:04:56.275Z,31.20
2022-08-17T21:07:33.129Z,28.60
2022-08-17T21:10:25.502Z,27.35
2022-08-17T21:13:13.246Z,30.95
2022-08-17T21:15:51.708Z,31.30
2022-08-17T21:18:43.852Z,28.15
2022-08-17T21:21:48.397Z,31.42
2022-08-17T21:24:42.397Z,29.25
2022-08-17T21:27:18.303Z,33.60
2022-08-17T21:30:01.672Z,27.85
2022-08-17T21:32:35.435Z,28.85
2022-08-17T21:35:11.284Z,32.40
2022-08-17T21:37:40.727Z,28.45
2022-08-17T21:40:10.256Z,30.75
2022-08-17T21:42:47.319Z,31.38
2022-08-17T21:45:30.851Z,34.13
2022-08-17T21:48:19.567Z,31.67
2022-08-17T21:50:59.005Z,30.05
2022-08-17T21:53:33.500Z,29.67
2022-08-17T21:56:00.679Z,28.50
2022-08-17T21:58:34.207Z,29.48
2022-08-17T22:01:24.714Z,25.90
2022-08-17T22:04:14.885Z,32.47
2022-08-17T22:06:57.386Z,34.05
2022-08-17T22:09:31.576Z,32.60
2022-08-17T22:12:01.689Z,28.00
2022-08-17T22:14:53.395Z,30.23
2022-08-17T22:17:23.054Z,34.17
2022-08-17T22:19:59.537Z,32.95
2022-08-17T22:22:32.443Z,32.53
2022-08-17T22:25:08.458Z,32.33
2022-08-17T22:28:05.951Z,33.75
2022-08-17T22:30:42.467Z,33.35
2022-08-17T22:33:36.453Z,33.80
2022-08-17T22:36:12.478Z,33.38
2022-08-17T22:38:42.002Z,38.83
2022-08-17T22:41:13.736Z,36.92
2022-08-17T22:43:43.143Z,34.28
2022-08-17T22:46:12.386Z,36.03
2022-08-17T22:48:48.488Z,36.40
2022-08-17T22:51:20.670Z,35.38
2022-08-17T22:54:09.629Z,32.70
2022-08-17T22:56:55.477Z,34.45
2022-08-17T23:02:17.297Z,33.42
2022-08-17T23:07:12.316Z,31.35
2022-08-17T23:09:39.313Z,40.53
2022-08-17T23:12:11.595Z,43.72
2022-08-17T23:14:45.286Z,38.08
2022-08-17T23:17:12.466Z,38.47
2022-08-17T23:19:39.209Z,39.97
2022-08-17T23:22:08.820Z,41.13
2022-08-17T23:24:43.821Z,38.53
2022-08-17T23:27:11.155Z,39.60
2022-08-17T23:29:41.905Z,38.30
2022-08-17T23:32:11.636Z,32.58
2022-08-17T23:34:40.087Z,35.35
2022-08-17T23:37:07.975Z,36.47
2022-08-17T23:39:35.554Z,43.10
2022-08-17T23:42:07.924Z,39.88
2022-08-17T23:44:39.392Z,35.17
2022-08-17T23:47:07.993Z,39.10
2022-08-17T23:49:36.125Z,39.22
2022-08-17T23:52:06.987Z,42.25
2022-08-17T23:54:46.512Z,40.80
2022-08-17T23:57:19.075Z,40.15
2022-08-17T23:59:46.240Z,38.15
